sensor_id;sensor_type;location;lat;lon;timestamp;P1;durP1;ratioP1;P2;durP2;ratioP2
42662;SDS011;44330;51.360;6.686;2023-07-08T12:10:40;7.68;;;4.25;;
42662;SDS011;44330;51.360;6.686;2023-07-08T12:13:13;6.88;;;5.15;;
42662;SDS011;44330;51.360;6.686;2023-07-08T12:15:40;11.32;;;5.10;;
42662;SDS011;44330;51.360;6.686;2023-07-08T12:18:09;7.43;;;4.57;;
42662;SDS011;44330;51.360;6.686;2023-07-08T12:20:39;6.85;;;4.45;;
42662;SDS011;44330;51.360;6.686;2023-07-08T12:23:13;8.40;;;4.88;;
42662;SDS011;44330;51.360;6.686;2023-07-08T12:25:44;7.25;;;4.40;;
42662;SDS011;44330;51.360;6.686;2023-07-08T12:28:10;5.68;;;4.50;;
42662;SDS011;44330;51.360;6.686;2023-07-08T12:30:39;7.65;;;4.68;;
42662;SDS011;44330;51.360;6.686;2023-07-08T12:33:09;5.13;;;4.27;;
42662;SDS011;44330;51.360;6.686;2023-07-08T12:35:41;5.28;;;4.03;;
42662;SDS011;44330;51.360;6.686;2023-07-08T12:38:19;6.70;;;4.70;;
42662;SDS011;44330;51.360;6.686;2023-07-08T12:40:57;5.55;;;4.18;;
42662;SDS011;44330;51.360;6.686;2023-07-08T12:43:25;5.60;;;4.82;;
42662;SDS011;44330;51.360;6.686;2023-07-08T12:45:51;4.40;;;4.00;;
42662;SDS011;44330;51.360;6.686;2023-07-08T12:48:16;8.85;;;4.60;;
42662;SDS011;44330;51.360;6.686;2023-07-08T12:50:42;5.60;;;4.30;;
42662;SDS011;44330;51.360;6.686;2023-07-08T12:53:07;5.95;;;4.70;;
42662;SDS011;44330;51.360;6.686;2023-07-08T12:58:05;8.10;;;4.80;;
42662;SDS011;44330;51.360;6.686;2023-07-08T13:05:42;8.98;;;4.30;;
42662;SDS011;44330;51.360;6.686;2023-07-08T13:08:15;7.10;;;4.18;;
42662;SDS011;44330;51.360;6.686;2023-07-08T13:10:43;9.43;;;5.43;;
42662;SDS011;44330;51.360;6.686;2023-07-08T13:13:24;6.47;;;4.80;;
42662;SDS011;44330;51.360;6.686;2023-07-08T13:15:54;8.23;;;4.65;;
42662;SDS011;44330;51.360;6.686;2023-07-08T13:18:37;7.35;;;4.20;;
42662;SDS011;44330;51.360;6.686;2023-07-08T13:21:05;6.07;;;4.43;;
42662;SDS011;44330;51.360;6.686;2023-07-08T13:23:33;10.68;;;5.20;;
42662;SDS011;44330;51.360;6.686;2023-07-08T13:26:00;5.63;;;4.40;;
42662;SDS011;44330;51.360;6.686;2023-07-08T13:28:30;8.13;;;5.15;;
42662;SDS011;44330;51.360;6.686;2023-07-08T13:31:12;6.68;;;4.13;;
42662;SDS011;44330;51.360;6.686;2023-07-08T13:33:53;5.63;;;4.13;;
42662;SDS011;44330;51.360;6.686;2023-07-08T13:36:21;6.57;;;4.50;;
42662;SDS011;44330;51.360;6.686;2023-07-08T13:38:57;6.70;;;4.65;;
42662;SDS011;44330;51.360;6.686;2023-07-08T13:41:23;6.47;;;4.20;;
42662;SDS011;44330;51.360;6.686;2023-07-08T13:43:49;7.80;;;4.68;;
42662;SDS011;44330;51.360;6.686;2023-07-08T13:46:29;7.78;;;4.63;;
42662;SDS011;44330;51.360;6.686;2023-07-08T13:49:08;6.43;;;4.20;;
42662;SDS011;44330;51.360;6.686;2023-07-08T13:51:36;6.65;;;4.53;;
42662;SDS011;44330;51.360;6.686;2023-07-08T13:56:49;6.35;;;4.35;;
42662;SDS011;44330;51.360;6.686;2023-07-08T13:59:18;6.97;;;4.83;;
42662;SDS011;44330;51.360;6.686;2023-07-08T14:01:48;8.05;;;5.20;;
42662;SDS011;44330;51.360;6.686;2023-07-08T14:04:18;7.35;;;4.47;;
42662;SDS011;44330;51.360;6.686;2023-07-08T14:06:46;9.73;;;4.63;;
42662;SDS011;44330;51.360;6.686;2023-07-08T14:09:13;8.35;;;4.22;;
42662;SDS011;44330;51.360;6.686;2023-07-08T14:11:41;7.50;;;4.40;;
42662;SDS011;44330;51.360;6.686;2023-07-08T14:14:07;5.18;;;4.18;;
42662;SDS011;44330;51.360;6.686;2023-07-08T14:16:34;7.43;;;4.57;;
42662;SDS011;44330;51.360;6.686;2023-07-08T14:19:02;5.63;;;4.35;;
42662;SDS011;44330;51.360;6.686;2023-07-08T14:21:34;5.57;;;4.30;;
42662;SDS011;44330;51.360;6.686;2023-07-08T14:24:01;5.20;;;4.20;;
42662;SDS011;44330;51.360;6.686;2023-07-08T14:26:28;6.43;;;4.32;;
42662;SDS011;44330;51.360;6.686;2023-07-08T14:28:54;7.95;;;4.45;;
42662;SDS011;44330;51.360;6.686;2023-07-08T14:31:21;5.30;;;4.20;;
42662;SDS011;44330;51.360;6.686;2023-07-08T14:33:59;7.57;;;4.43;;
42662;SDS011;44330;51.360;6.686;2023-07-08T14:36:31;6.68;;;4.80;;
42662;SDS011;44330;51.360;6.686;2023-07-08T14:38:57;8.65;;;4.88;;
42662;SDS011;44330;51.360;6.686;2023-07-08T14:41:23;8.85;;;4.68;;
42662;SDS011;44330;51.360;6.686;2023-07-08T14:43:50;10.52;;;4.72;;
42662;SDS011;44330;51.360;6.686;2023-07-08T14:46:16;6.80;;;4.20;;
42662;SDS011;44330;51.360;6.686;2023-07-08T14:48:42;8.70;;;4.00;;
42662;SDS011;44330;51.360;6.686;2023-07-08T14:51:08;5.75;;;4.35;;
42662;SDS011;44330;51.360;6.686;2023-07-08T14:53:33;8.18;;;4.57;;
42662;SDS011;44330;51.360;6.686;2023-07-08T14:55:59;6.30;;;4.38;;
42662;SDS011;44330;51.360;6.686;2023-07-08T14:58:30;5.22;;;4.45;;
42662;SDS011;44330;51.360;6.686;2023-07-08T15:01:00;7.50;;;4.28;;
42662;SDS011;44330;51.360;6.686;2023-07-08T15:03:32;5.05;;;3.90;;
42662;SDS011;44330;51.360;6.686;2023-07-08T15:05:58;8.25;;;4.50;;
42662;SDS011;44330;51.360;6.686;2023-07-08T15:08:24;6.63;;;4.22;;
42662;SDS011;44330;51.360;6.686;2023-07-08T15:10:50;12.20;;;4.57;;
42662;SDS011;44330;51.360;6.686;2023-07-08T15:13:17;5.47;;;4.38;;
42662;SDS011;44330;51.360;6.686;2023-07-08T15:15:45;9.82;;;4.40;;
42662;SDS011;44330;51.360;6.686;2023-07-08T15:18:13;7.25;;;4.35;;
42662;SDS011;44330;51.360;6.686;2023-07-08T15:20:43;6.35;;;4.50;;
42662;SDS011;44330;51.360;6.686;2023-07-08T15:23:09;7.55;;;4.18;;
42662;SDS011;44330;51.360;6.686;2023-07-08T15:25:35;7.68;;;3.97;;
42662;SDS011;44330;51.360;6.686;2023-07-08T15:28:02;7.22;;;5.10;;
42662;SDS011;44330;51.360;6.686;2023-07-08T15:30:30;7.90;;;4.78;;
42662;SDS011;44330;51.360;6.686;2023-07-08T15:32:56;5.97;;;4.10;;
42662;SDS011;44330;51.360;6.686;2023-07-08T15:35:24;11.45;;;4.28;;
42662;SDS011;44330;51.360;6.686;2023-07-08T15:37:55;6.07;;;4.10;;
42662;SDS011;44330;51.360;6.686;2023-07-08T15:40:24;5.68;;;4.18;;
42662;SDS011;44330;51.360;6.686;2023-07-08T15:45:23;5.50;;;3.83;;
42662;SDS011;44330;51.360;6.686;2023-07-08T15:48:00;7.25;;;4.60;;
42662;SDS011;44330;51.360;6.686;2023-07-08T15:50:26;9.43;;;5.55;;
42662;SDS011;44330;51.360;6.686;2023-07-08T15:52:53;8.80;;;5.00;;
42662;SDS011;44330;51.360;6.686;2023-07-08T15:55:21;6.63;;;4.78;;
42662;SDS011;44330;51.360;6.686;2023-07-08T15:58:03;9.27;;;4.70;;
42662;SDS011;44330;51.360;6.686;2023-07-08T16:00:33;6.90;;;4.85;;
42662;SDS011;44330;51.360;6.686;2023-07-08T16:03:10;6.32;;;4.30;;
42662;SDS011;44330;51.360;6.686;2023-07-08T16:05:41;8.13;;;4.50;;
42662;SDS011;44330;51.360;6.686;2023-07-08T16:08:08;5.05;;;3.85;;
42662;SDS011;44330;51.360;6.686;2023-07-08T16:10:34;7.18;;;4.20;;
42662;SDS011;44330;51.360;6.686;2023-07-08T16:15:30;6.13;;;4.68;;
42662;SDS011;44330;51.360;6.686;2023-07-08T16:17:58;8.40;;;4.90;;
42662;SDS011;44330;51.360;6.686;2023-07-08T16:20:24;7.00;;;5.15;;
42662;SDS011;44330;51.360;6.686;2023-07-08T16:22:51;5.72;;;4.28;;
42662;SDS011;44330;51.360;6.686;2023-07-08T16:25:18;6.72;;;4.63;;
42662;SDS011;44330;51.360;6.686;2023-07-08T16:27:48;5.55;;;4.30;;
42662;SDS011;44330;51.360;6.686;2023-07-08T16:30:16;6.32;;;4.63;;
42662;SDS011;44330;51.360;6.686;2023-07-08T16:32:44;11.65;;;5.05;;
42662;SDS011;44330;51.360;6.686;2023-07-08T16:35:10;7.65;;;4.95;;
42662;SDS011;44330;51.360;6.686;2023-07-08T16:37:38;9.82;;;4.97;;
42662;SDS011;44330;51.360;6.686;2023-07-08T16:40:05;7.90;;;4.70;;
42662;SDS011;44330;51.360;6.686;2023-07-08T16:42:34;6.63;;;4.70;;
42662;SDS011;44330;51.360;6.686;2023-07-08T16:45:00;8.80;;;5.22;;
42662;SDS011;44330;51.360;6.686;2023-07-08T16:47:25;6.63;;;4.63;;
42662;SDS011;44330;51.360;6.686;2023-07-08T16:49:51;7.18;;;4.60;;
42662;SDS011;44330;51.360;6.686;2023-07-08T16:52:17;9.18;;;5.40;;
42662;SDS011;44330;51.360;6.686;2023-07-08T16:54:43;8.45;;;5.53;;
42662;SDS011;44330;51.360;6.686;2023-07-08T16:57:09;7.40;;;5.38;;
42662;SDS011;44330;51.360;6.686;2023-07-08T16:59:40;6.68;;;4.65;;
42662;SDS011;44330;51.360;6.686;2023-07-08T17:02:12;6.72;;;4.53;;
42662;SDS011;44330;51.360;6.686;2023-07-08T17:04:39;6.55;;;4.10;;
42662;SDS011;44330;51.360;6.686;2023-07-08T17:07:09;5.90;;;4.53;;
42662;SDS011;44330;51.360;6.686;2023-07-08T17:09:36;8.70;;;4.82;;
42662;SDS011;44330;51.360;6.686;2023-07-08T17:12:02;6.63;;;4.03;;
42662;SDS011;44330;51.360;6.686;2023-07-08T17:14:28;5.65;;;4.20;;
42662;SDS011;44330;51.360;6.686;2023-07-08T17:16:53;6.38;;;4.47;;
42662;SDS011;44330;51.360;6.686;2023-07-08T17:19:19;8.05;;;4.25;;
42662;SDS011;44330;51.360;6.686;2023-07-08T17:21:44;5.95;;;4.43;;
42662;SDS011;44330;51.360;6.686;2023-07-08T17:24:12;7.18;;;4.38;;
42662;SDS011;44330;51.360;6.686;2023-07-08T17:26:37;6.10;;;4.95;;
42662;SDS011;44330;51.360;6.686;2023-07-08T17:29:04;8.00;;;4.60;;
42662;SDS011;44330;51.360;6.686;2023-07-08T17:31:30;7.65;;;4.47;;
42662;SDS011;44330;51.360;6.686;2023-07-08T17:33:56;7.47;;;4.75;;
42662;SDS011;44330;51.360;6.686;2023-07-08T17:36:35;10.60;;;5.13;;
42662;SDS011;44330;51.360;6.686;2023-07-08T17:39:02;6.85;;;4.65;;
42662;SDS011;44330;51.360;6.686;2023-07-08T17:41:31;10.70;;;5.90;;
42662;SDS011;44330;51.360;6.686;2023-07-08T17:43:57;8.98;;;4.75;;
42662;SDS011;44330;51.360;6.686;2023-07-08T17:46:23;11.35;;;4.25;;
42662;SDS011;44330;51.360;6.686;2023-07-08T17:48:51;6.88;;;4.72;;
42662;SDS011;44330;51.360;6.686;2023-07-08T17:51:18;7.18;;;4.40;;
42662;SDS011;44330;51.360;6.686;2023-07-08T17:53:45;8.70;;;4.85;;
42662;SDS011;44330;51.360;6.686;2023-07-08T17:56:34;9.00;;;4.95;;
42662;SDS011;44330;51.360;6.686;2023-07-08T17:59:02;5.65;;;4.57;;
42662;SDS011;44330;51.360;6.686;2023-07-08T18:01:29;6.73;;;4.53;;
42662;SDS011;44330;51.360;6.686;2023-07-08T18:03:55;7.30;;;4.75;;
42662;SDS011;44330;51.360;6.686;2023-07-08T18:06:21;9.90;;;4.88;;
42662;SDS011;44330;51.360;6.686;2023-07-08T18:08:47;5.75;;;4.47;;
42662;SDS011;44330;51.360;6.686;2023-07-08T18:11:17;8.35;;;4.53;;
42662;SDS011;44330;51.360;6.686;2023-07-08T18:13:45;6.53;;;4.57;;
42662;SDS011;44330;51.360;6.686;2023-07-08T18:16:16;7.97;;;4.38;;
42662;SDS011;44330;51.360;6.686;2023-07-08T18:18:43;9.45;;;4.38;;
42662;SDS011;44330;51.360;6.686;2023-07-08T18:21:19;6.43;;;4.25;;
42662;SDS011;44330;51.360;6.686;2023-07-08T18:23:47;8.70;;;4.63;;
42662;SDS011;44330;51.360;6.686;2023-07-08T18:26:15;6.93;;;4.85;;
42662;SDS011;44330;51.360;6.686;2023-07-08T18:28:44;6.70;;;5.00;;
42662;SDS011;44330;51.360;6.686;2023-07-08T18:31:10;10.25;;;5.13;;
42662;SDS011;44330;51.360;6.686;2023-07-08T18:33:36;7.43;;;5.13;;
42662;SDS011;44330;51.360;6.686;2023-07-08T18:36:02;9.30;;;7.40;;
42662;SDS011;44330;51.360;6.686;2023-07-08T18:38:29;11.35;;;7.03;;
42662;SDS011;44330;51.360;6.686;2023-07-08T18:40:55;15.23;;;10.68;;
42662;SDS011;44330;51.360;6.686;2023-07-08T18:43:22;17.58;;;11.20;;
42662;SDS011;44330;51.360;6.686;2023-07-08T18:45:51;8.65;;;6.88;;
42662;SDS011;44330;51.360;6.686;2023-07-08T18:48:17;8.05;;;6.43;;
42662;SDS011;44330;51.360;6.686;2023-07-08T18:50:45;7.32;;;5.30;;
42662;SDS011;44330;51.360;6.686;2023-07-08T18:53:19;6.57;;;4.97;;
42662;SDS011;44330;51.360;6.686;2023-07-08T18:55:45;6.22;;;4.68;;
42662;SDS011;44330;51.360;6.686;2023-07-08T18:58:14;7.63;;;4.20;;
42662;SDS011;44330;51.360;6.686;2023-07-08T19:00:47;9.30;;;4.72;;
42662;SDS011;44330;51.360;6.686;2023-07-08T19:05:45;8.70;;;4.68;;
42662;SDS011;44330;51.360;6.686;2023-07-08T19:08:11;8.27;;;4.20;;
42662;SDS011;44330;51.360;6.686;2023-07-08T19:10:36;9.30;;;5.15;;
42662;SDS011;44330;51.360;6.686;2023-07-08T19:13:02;6.70;;;4.68;;
42662;SDS011;44330;51.360;6.686;2023-07-08T19:15:34;10.77;;;5.25;;
42662;SDS011;44330;51.360;6.686;2023-07-08T19:17:59;10.70;;;5.32;;
42662;SDS011;44330;51.360;6.686;2023-07-08T19:20:26;10.70;;;5.10;;
42662;SDS011;44330;51.360;6.686;2023-07-08T19:22:58;9.95;;;5.65;;
42662;SDS011;44330;51.360;6.686;2023-07-08T19:25:24;7.85;;;5.75;;
42662;SDS011;44330;51.360;6.686;2023-07-08T19:27:51;10.82;;;5.75;;
42662;SDS011;44330;51.360;6.686;2023-07-08T19:30:17;10.23;;;5.50;;
42662;SDS011;44330;51.360;6.686;2023-07-08T19:32:48;6.45;;;5.00;;
42662;SDS011;44330;51.360;6.686;2023-07-08T19:35:16;10.48;;;5.13;;
42662;SDS011;44330;51.360;6.686;2023-07-08T19:37:44;11.75;;;5.85;;
42662;SDS011;44330;51.360;6.686;2023-07-08T19:40:15;8.02;;;5.07;;
42662;SDS011;44330;51.360;6.686;2023-07-08T19:45:20;9.83;;;5.10;;
42662;SDS011;44330;51.360;6.686;2023-07-08T19:47:48;9.73;;;5.70;;
42662;SDS011;44330;51.360;6.686;2023-07-08T19:50:14;9.80;;;5.07;;
42662;SDS011;44330;51.360;6.686;2023-07-08T19:52:42;8.93;;;5.07;;
42662;SDS011;44330;51.360;6.686;2023-07-08T19:55:08;8.45;;;5.22;;
42662;SDS011;44330;51.360;6.686;2023-07-08T19:58:09;11.23;;;5.65;;
42662;SDS011;44330;51.360;6.686;2023-07-08T20:02:53;11.65;;;5.57;;
42662;SDS011;44330;51.360;6.686;2023-07-08T20:05:21;10.57;;;5.95;;
42662;SDS011;44330;51.360;6.686;2023-07-08T20:07:53;10.95;;;6.00;;
42662;SDS011;44330;51.360;6.686;2023-07-08T20:10:36;11.18;;;5.45;;
42662;SDS011;44330;51.360;6.686;2023-07-08T20:13:02;10.15;;;5.22;;
42662;SDS011;44330;51.360;6.686;2023-07-08T20:15:27;8.70;;;5.25;;
42662;SDS011;44330;51.360;6.686;2023-07-08T20:17:57;10.00;;;5.07;;
42662;SDS011;44330;51.360;6.686;2023-07-08T20:20:25;10.57;;;4.78;;
42662;SDS011;44330;51.360;6.686;2023-07-08T20:22:53;6.32;;;5.13;;
42662;SDS011;44330;51.360;6.686;2023-07-08T20:25:19;12.65;;;5.32;;
42662;SDS011;44330;51.360;6.686;2023-07-08T20:27:46;11.45;;;5.50;;
42662;SDS011;44330;51.360;6.686;2023-07-08T20:30:23;13.30;;;5.95;;
42662;SDS011;44330;51.360;6.686;2023-07-08T20:32:51;12.50;;;6.15;;
42662;SDS011;44330;51.360;6.686;2023-07-08T20:35:18;11.05;;;5.78;;
42662;SDS011;44330;51.360;6.686;2023-07-08T20:37:47;11.48;;;5.75;;
42662;SDS011;44330;51.360;6.686;2023-07-08T20:40:14;8.52;;;5.18;;
42662;SDS011;44330;51.360;6.686;2023-07-08T20:42:48;8.02;;;5.32;;
42662;SDS011;44330;51.360;6.686;2023-07-08T20:45:18;11.75;;;5.70;;
42662;SDS011;44330;51.360;6.686;2023-07-08T20:47:53;8.93;;;5.55;;
42662;SDS011;44330;51.360;6.686;2023-07-08T20:50:20;9.52;;;5.90;;
42662;SDS011;44330;51.360;6.686;2023-07-08T20:55:15;6.75;;;5.07;;
42662;SDS011;44330;51.360;6.686;2023-07-08T20:57:45;11.87;;;5.43;;
42662;SDS011;44330;51.360;6.686;2023-07-08T21:00:28;8.73;;;5.63;;
42662;SDS011;44330;51.360;6.686;2023-07-08T21:02:56;7.65;;;5.40;;
42662;SDS011;44330;51.360;6.686;2023-07-08T21:05:23;12.27;;;5.63;;
42662;SDS011;44330;51.360;6.686;2023-07-08T21:07:55;8.27;;;6.03;;
42662;SDS011;44330;51.360;6.686;2023-07-08T21:10:23;8.15;;;5.50;;
42662;SDS011;44330;51.360;6.686;2023-07-08T21:12:50;8.20;;;5.38;;
42662;SDS011;44330;51.360;6.686;2023-07-08T21:15:17;9.15;;;4.93;;
42662;SDS011;44330;51.360;6.686;2023-07-08T21:17:44;11.00;;;5.25;;
42662;SDS011;44330;51.360;6.686;2023-07-08T21:20:20;10.07;;;5.78;;
42662;SDS011;44330;51.360;6.686;2023-07-08T21:22:48;10.45;;;5.40;;
42662;SDS011;44330;51.360;6.686;2023-07-08T21:25:14;8.00;;;5.28;;
42662;SDS011;44330;51.360;6.686;2023-07-08T21:27:41;9.73;;;5.30;;
42662;SDS011;44330;51.360;6.686;2023-07-08T21:30:17;9.90;;;5.85;;
42662;SDS011;44330;51.360;6.686;2023-07-08T21:32:45;12.38;;;5.75;;
42662;SDS011;44330;51.360;6.686;2023-07-08T21:35:12;12.95;;;5.47;;
42662;SDS011;44330;51.360;6.686;2023-07-08T21:37:47;8.65;;;5.10;;
42662;SDS011;44330;51.360;6.686;2023-07-08T21:40:35;11.85;;;5.28;;
42662;SDS011;44330;51.360;6.686;2023-07-08T21:43:05;7.80;;;4.93;;
42662;SDS011;44330;51.360;6.686;2023-07-08T21:45:36;10.30;;;5.78;;
42662;SDS011;44330;51.360;6.686;2023-07-08T21:48:03;11.00;;;5.35;;
42662;SDS011;44330;51.360;6.686;2023-07-08T21:50:30;9.02;;;5.03;;
42662;SDS011;44330;51.360;6.686;2023-07-08T21:53:01;8.10;;;4.65;;
42662;SDS011;44330;51.360;6.686;2023-07-08T21:55:27;8.95;;;5.00;;
42662;SDS011;44330;51.360;6.686;2023-07-08T21:57:53;8.32;;;4.88;;
42662;SDS011;44330;51.360;6.686;2023-07-08T22:00:19;7.65;;;4.30;;
42662;SDS011;44330;51.360;6.686;2023-07-08T22:02:49;6.88;;;4.72;;
42662;SDS011;44330;51.360;6.686;2023-07-08T22:05:17;9.63;;;5.22;;
42662;SDS011;44330;51.360;6.686;2023-07-08T22:07:44;7.97;;;5.25;;
42662;SDS011;44330;51.360;6.686;2023-07-08T22:10:15;9.38;;;5.32;;
42662;SDS011;44330;51.360;6.686;2023-07-08T22:12:46;8.15;;;4.68;;
42662;SDS011;44330;51.360;6.686;2023-07-08T22:15:16;6.50;;;4.85;;
42662;SDS011;44330;51.360;6.686;2023-07-08T22:17:50;6.05;;;4.47;;
42662;SDS011;44330;51.360;6.686;2023-07-08T22:20:19;10.07;;;5.20;;
42662;SDS011;44330;51.360;6.686;2023-07-08T22:22:49;7.57;;;4.63;;
42662;SDS011;44330;51.360;6.686;2023-07-08T22:25:33;9.60;;;5.22;;
42662;SDS011;44330;51.360;6.686;2023-07-08T22:27:58;7.88;;;4.28;;
42662;SDS011;44330;51.360;6.686;2023-07-08T22:30:24;8.98;;;5.10;;
42662;SDS011;44330;51.360;6.686;2023-07-08T22:32:49;12.27;;;4.47;;
42662;SDS011;44330;51.360;6.686;2023-07-08T22:35:23;7.63;;;4.72;;
42662;SDS011;44330;51.360;6.686;2023-07-08T22:37:59;7.50;;;4.20;;
42662;SDS011;44330;51.360;6.686;2023-07-08T22:40:25;12.27;;;5.18;;
42662;SDS011;44330;51.360;6.686;2023-07-08T22:42:52;7.68;;;4.90;;
42662;SDS011;44330;51.360;6.686;2023-07-08T22:45:19;8.32;;;4.63;;
42662;SDS011;44330;51.360;6.686;2023-07-08T22:47:44;9.15;;;5.00;;
42662;SDS011;44330;51.360;6.686;2023-07-08T22:50:12;8.82;;;4.78;;
42662;SDS011;44330;51.360;6.686;2023-07-08T22:52:38;11.80;;;5.53;;
42662;SDS011;44330;51.360;6.686;2023-07-08T22:55:20;10.07;;;5.63;;
42662;SDS011;44330;51.360;6.686;2023-07-08T22:57:51;10.40;;;4.93;;
42662;SDS011;44330;51.360;6.686;2023-07-08T23:00:23;7.15;;;4.68;;
42662;SDS011;44330;51.360;6.686;2023-07-08T23:02:50;8.13;;;4.70;;
42662;SDS011;44330;51.360;6.686;2023-07-08T23:05:18;6.25;;;4.85;;
42662;SDS011;44330;51.360;6.686;2023-07-08T23:07:48;10.35;;;4.85;;
42662;SDS011;44330;51.360;6.686;2023-07-08T23:10:14;8.77;;;4.63;;
42662;SDS011;44330;51.360;6.686;2023-07-08T23:12:40;8.88;;;4.72;;
42662;SDS011;44330;51.360;6.686;2023-07-08T23:15:07;11.07;;;4.35;;
42662;SDS011;44330;51.360;6.686;2023-07-08T23:17:34;9.52;;;4.80;;
42662;SDS011;44330;51.360;6.686;2023-07-08T23:20:03;7.95;;;4.97;;
42662;SDS011;44330;51.360;6.686;2023-07-08T23:22:31;8.00;;;4.38;;
42662;SDS011;44330;51.360;6.686;2023-07-08T23:24:56;8.80;;;5.03;;
42662;SDS011;44330;51.360;6.686;2023-07-08T23:27:22;6.72;;;4.85;;
42662;SDS011;44330;51.360;6.686;2023-07-08T23:29:48;5.95;;;4.30;;
42662;SDS011;44330;51.360;6.686;2023-07-08T23:32:13;8.82;;;5.30;;
42662;SDS011;44330;51.360;6.686;2023-07-08T23:34:39;8.98;;;4.82;;
42662;SDS011;44330;51.360;6.686;2023-07-08T23:37:07;8.43;;;5.00;;
42662;SDS011;44330;51.360;6.686;2023-07-08T23:39:36;9.68;;;4.97;;
42662;SDS011;44330;51.360;6.686;2023-07-08T23:42:01;6.65;;;4.82;;
42662;SDS011;44330;51.360;6.686;2023-07-08T23:44:27;8.57;;;4.90;;
42662;SDS011;44330;51.360;6.686;2023-07-08T23:46:55;9.02;;;4.78;;
42662;SDS011;44330;51.360;6.686;2023-07-08T23:49:26;8.18;;;5.43;;
42662;SDS011;44330;51.360;6.686;2023-07-08T23:51:54;7.63;;;4.90;;
42662;SDS011;44330;51.360;6.686;2023-07-08T23:54:32;9.60;;;5.15;;
42662;SDS011;44330;51.360;6.686;2023-07-08T23:56:59;7.85;;;5.25;;
42662;SDS011;44330;51.360;6.686;2023-07-08T23:59:29;11.80;;;5.22;;
